Station: EHBK - 02/10/2022 19:55Z (il y a 20 minutes)
EHBK 021955Z AUTO 30003KT 250V360 9999 FEW049 11/09 Q1023 NOSIG
Vent du 300º - 3 kt (vent de direction variable de 250º à 360º)
Visibilité > 10 km
Nuages épars à 4900 pieds
Température: +11ºC - Point de rosée: +09ºC - QNH: 1023 hPa
Pas de changement significatif prévu dans les 2 heures qui suivent l'observation